Time;durP1;ratioP1;P1;durP2;ratioP2;P2;SDS_P1;SDS_P2;PMS_P1;PMS_P2;Temp;Humidity;BMP_temperature;BMP_pressure;BME280_temperature;BME280_humidity;BME280_pressure;Samples;Min_cycle;Max_cycle;Signal;HPM_P1;HPM_P2
2023/11/20 00:00:22;;;;;;;5.75;3.42;;;;;;;4.19;64.40;99889.44;6149206;23;20068;-78
2023/11/20 00:02:48;;;;;;;7.93;4.15;;;;;;;3.88;65.00;99869.28;6148934;23;20451;-79
2023/11/20 00:05:14;;;;;;;6.38;3.65;;;;;;;3.79;65.94;99870.34;6148778;23;20014;-80
2023/11/20 00:07:40;;;;;;;5.95;3.45;;;;;;;3.83;65.57;99901.47;6149032;23;20428;-79
2023/11/20 00:10:07;;;;;;;16.40;4.80;;;;;;;3.94;65.27;99905.50;6149125;23;20009;-79
2023/11/20 00:12:32;;;;;;;11.00;4.10;;;;;;;3.93;64.89;99906.50;6149479;23;20037;-79
2023/11/20 00:14:59;;;;;;;6.82;3.83;;;;;;;4.05;64.20;99900.81;6149100;23;20001;-80
2023/11/20 00:17:25;;;;;;;7.47;3.88;;;;;;;4.01;64.32;99900.34;6148630;23;20088;-79
2023/11/20 00:19:50;;;;;;;9.00;4.00;;;;;;;3.94;64.71;99913.44;6122946;23;20017;-78
2023/11/20 00:22:16;;;;;;;8.40;4.40;;;;;;;3.76;64.40;99881.25;6122832;23;20347;-79
2023/11/20 00:24:42;;;;;;;8.40;4.22;;;;;;;3.77;65.80;99922.47;6148967;23;20591;-80
2023/11/20 00:27:07;;;;;;;8.63;4.50;;;;;;;3.54;65.87;99904.03;6148153;23;20005;-80
2023/11/20 00:29:33;;;;;;;7.07;3.83;;;;;;;3.62;65.36;99904.78;6123826;23;20001;-79
2023/11/20 00:31:58;;;;;;;6.60;4.00;;;;;;;3.58;65.20;99921.97;6149312;23;20332;-79
2023/11/20 00:34:24;;;;;;;7.32;3.58;;;;;;;3.86;65.05;99915.31;6149055;23;20482;-79
2023/11/20 00:36:49;;;;;;;7.15;3.97;;;;;;;3.45;66.21;99911.19;6148726;23;20006;-78
2023/11/20 00:39:15;;;;;;;7.20;4.18;;;;;;;3.54;66.75;99899.59;6149088;23;20001;-79
2023/11/20 00:41:41;;;;;;;8.60;4.20;;;;;;;3.45;66.29;99927.00;6149038;23;20107;-79
2023/11/20 00:44:06;;;;;;;9.70;4.80;;;;;;;3.15;66.40;99913.69;6148864;23;20002;-79
2023/11/20 00:46:32;;;;;;;12.82;4.75;;;;;;;3.20;67.44;99919.25;6149103;23;20037;-79
2023/11/20 00:48:58;;;;;;;9.23;4.28;;;;;;;3.11;67.86;99915.03;6148576;23;20006;-79
2023/11/20 00:51:25;;;;;;;7.20;3.97;;;;;;;3.33;67.03;99917.84;6148735;23;20024;-80
2023/11/20 00:53:51;;;;;;;8.10;4.20;;;;;;;3.38;66.55;99920.81;6148932;23;20064;-79
2023/11/20 00:56:18;;;;;;;8.68;4.30;;;;;;;3.19;67.33;99899.19;6149427;23;20005;-79
2023/11/20 00:58:43;;;;;;;9.30;4.45;;;;;;;3.57;66.17;99922.94;6150215;23;20013;-79
2023/11/20 01:01:09;;;;;;;7.35;5.05;;;;;;;3.62;66.88;99928.53;6150729;23;20002;-79
2023/11/20 01:03:34;;;;;;;8.52;5.05;;;;;;;3.45;66.79;99905.91;6150833;23;20009;-78
2023/11/20 01:06:04;;;;;;;8.48;5.45;;;;;;;3.54;67.77;99930.41;6150605;23;20005;-79
2023/11/20 01:08:29;;;;;;;9.95;5.90;;;;;;;3.66;67.51;99912.34;6124669;23;20034;-80
2023/11/20 01:10:55;;;;;;;9.10;5.63;;;;;;;3.50;68.48;99915.94;6124711;23;20432;-78
2023/11/20 01:13:20;;;;;;;10.57;6.00;;;;;;;3.26;68.86;99880.84;6150974;23;20037;-78
2023/11/20 01:15:46;;;;;;;10.20;6.13;;;;;;;3.20;68.92;99885.00;6150789;23;20032;-79
2023/11/20 01:18:11;;;;;;;10.88;6.57;;;;;;;3.49;68.63;99896.66;6150595;23;20053;-78
2023/11/20 01:20:37;;;;;;;10.32;6.50;;;;;;;3.71;68.04;99910.00;6124735;23;20495;-79
2023/11/20 01:23:03;;;;;;;12.10;6.95;;;;;;;3.78;67.00;99897.72;6154684;23;20006;-79
2023/11/20 01:25:31;;;;;;;13.27;6.93;;;;;;;3.65;67.68;99906.25;6167241;23;20084;-78
2023/11/20 01:28:00;;;;;;;11.75;6.45;;;;;;;3.54;67.64;99883.75;6167689;23;20005;-78
2023/11/20 01:30:27;;;;;;;13.63;7.43;;;;;;;3.51;66.91;99884.09;6166640;23;20001;-80
2023/11/20 01:32:52;;;;;;;12.63;7.47;;;;;;;3.62;66.79;99907.44;6167552;23;20005;-79
2023/11/20 01:35:18;;;;;;;11.68;6.85;;;;;;;3.13;69.19;99876.16;6167386;23;20010;-81
2023/11/20 01:37:43;;;;;;;10.95;6.53;;;;;;;3.17;69.18;99882.72;6166806;23;20466;-80
2023/11/20 01:40:12;;;;;;;10.00;6.30;;;;;;;2.88;71.43;99898.38;6140661;23;20001;-79
2023/11/20 01:42:38;;;;;;;11.50;6.63;;;;;;;2.34;72.20;99897.28;6161596;23;20409;-77
2023/11/20 01:45:03;;;;;;;11.45;6.68;;;;;;;2.28;72.74;99850.59;6157314;23;20584;-78
2023/11/20 01:47:29;;;;;;;12.30;6.68;;;;;;;2.20;73.66;99874.31;6157649;23;20419;-77
2023/11/20 01:49:55;;;;;;;10.00;5.45;;;;;;;2.13;74.23;99878.59;6157305;23;20081;-79
2023/11/20 01:52:23;;;;;;;9.50;6.03;;;;;;;2.66;72.23;99907.88;6157736;23;20039;-78
2023/11/20 01:54:50;;;;;;;10.70;6.03;;;;;;;2.73;70.94;99895.66;6157612;23;20009;-78
2023/11/20 01:57:15;;;;;;;11.50;6.82;;;;;;;2.87;70.51;99879.13;6155670;23;20017;-77
2023/11/20 01:59:41;;;;;;;11.57;6.38;;;;;;;2.76;71.50;99906.66;6155182;23;20006;-77
2023/11/20 02:02:09;;;;;;;13.40;6.95;;;;;;;2.93;71.09;99903.94;6154888;23;20396;-78
2023/11/20 02:04:36;;;;;;;12.43;7.75;;;;;;;2.85;71.95;99914.53;6153149;23;20006;-80
2023/11/20 02:07:02;;;;;;;14.57;8.02;;;;;;;2.36;72.54;99884.78;6152562;23;20009;-77
2023/11/20 02:09:28;;;;;;;14.48;7.43;;;;;;;2.34;73.99;99918.31;6151509;23;20017;-78
2023/11/20 02:11:53;;;;;;;16.58;7.70;;;;;;;2.56;74.20;99918.59;6125961;23;20010;-78
2023/11/20 02:14:19;;;;;;;13.07;7.75;;;;;;;2.31;74.12;99902.06;6151646;23;20020;-79
2023/11/20 02:16:44;;;;;;;15.15;8.25;;;;;;;2.57;74.22;99886.00;6151144;23;20072;-78
2023/11/20 02:19:14;;;;;;;12.98;7.20;;;;;;;3.05;71.15;99889.38;6151419;23;20121;-78
2023/11/20 02:21:40;;;;;;;12.15;6.78;;;;;;;3.10;70.43;99902.03;6150646;23;20056;-78
2023/11/20 02:24:06;;;;;;;10.32;6.03;;;;;;;3.01;69.68;99873.09;6151177;23;20017;-78
2023/11/20 02:26:52;;;;;;;11.32;6.15;;;;;;;3.13;69.97;99881.44;6150209;23;20084;-79
2023/11/20 02:29:25;;;;;;;14.75;6.78;;;;;;;3.19;69.67;99901.81;6150122;23;20005;-79
2023/11/20 02:31:50;;;;;;;10.65;6.32;;;;;;;2.82;71.20;99878.84;6150544;23;20059;-79
2023/11/20 02:34:18;;;;;;;10.07;6.55;;;;;;;2.96;70.46;99869.34;6150398;23;20005;-77
2023/11/20 02:36:44;;;;;;;11.95;7.10;;;;;;;3.30;69.26;99881.31;6150054;23;20005;-80
2023/11/20 02:39:09;;;;;;;11.02;6.30;;;;;;;3.22;69.00;99880.38;6150157;23;20016;-79
2023/11/20 02:41:36;;;;;;;11.23;5.93;;;;;;;3.07;69.09;99861.06;6150106;23;20409;-79
2023/11/20 02:44:03;;;;;;;10.02;5.95;;;;;;;3.03;68.96;99867.66;6149986;23;20088;-80
2023/11/20 02:46:28;;;;;;;12.10;5.88;;;;;;;3.02;69.52;99879.19;6149904;23;20036;-79
2023/11/20 02:48:54;;;;;;;10.05;5.53;;;;;;;2.98;68.96;99847.13;6149647;23;20060;-79
2023/11/20 02:51:19;;;;;;;11.93;6.45;;;;;;;3.11;69.44;99879.97;6149400;23;20010;-79
2023/11/20 02:53:44;;;;;;;12.13;5.63;;;;;;;2.64;72.10;99865.91;6124036;23;20008;-80
2023/11/20 02:56:10;;;;;;;10.23;5.78;;;;;;;2.44;72.82;99849.72;6123854;23;20491;-79
2023/11/20 02:58:35;;;;;;;17.58;6.43;;;;;;;2.81;71.81;99867.44;6149413;23;20006;-79
2023/11/20 03:01:01;;;;;;;10.98;5.85;;;;;;;2.69;71.91;99855.66;6149869;23;20016;-78
2023/11/20 03:03:26;;;;;;;19.63;12.68;;;;;;;2.30;73.88;99843.34;6123298;23;20010;-78
2023/11/20 03:05:51;;;;;;;13.60;7.43;;;;;;;1.47;75.72;99854.19;6150179;23;20009;-78
2023/11/20 03:08:17;;;;;;;13.70;8.23;;;;;;;1.70;75.98;99857.81;6149297;23;20006;-79
2023/11/20 03:10:42;;;;;;;59.22;37.78;;;;;;;2.16;73.69;99841.44;6149885;23;20024;-79
2023/11/20 03:13:10;;;;;;;20.17;13.88;;;;;;;2.10;74.14;99847.38;6149826;23;20012;-78
2023/11/20 03:15:37;;;;;;;14.53;7.47;;;;;;;1.31;76.94;99820.88;6149651;23;20080;-79
2023/11/20 03:18:03;;;;;;;11.30;6.75;;;;;;;1.59;75.79;99819.56;6149474;23;20432;-79
2023/11/20 03:20:29;;;;;;;12.20;6.93;;;;;;;1.87;75.63;99832.31;6149220;23;20009;-78
2023/11/20 03:22:54;;;;;;;12.68;8.38;;;;;;;1.53;76.61;99840.41;6149451;23;20044;-78
2023/11/20 03:25:20;;;;;;;14.98;6.97;;;;;;;1.18;76.57;99811.66;6149364;23;20002;-79
2023/11/20 03:27:46;;;;;;;14.63;7.03;;;;;;;1.66;75.19;99845.19;6149496;23;20019;-79
2023/11/20 03:30:12;;;;;;;13.43;6.93;;;;;;;1.52;74.72;99829.06;6123371;23;20028;-78
2023/11/20 03:32:37;;;;;;;14.45;8.30;;;;;;;1.76;74.44;99830.03;6149520;23;20339;-78
2023/11/20 03:35:06;;;;;;;12.23;7.00;;;;;;;1.52;74.80;99813.31;6149233;23;20006;-78
2023/11/20 03:37:32;;;;;;;12.73;7.32;;;;;;;1.26;75.60;99796.91;6149230;23;20013;-78
2023/11/20 03:39:58;;;;;;;14.30;7.07;;;;;;;1.36;76.82;99792.31;6122895;23;20013;-79
2023/11/20 03:42:23;;;;;;;13.95;7.15;;;;;;;1.82;74.81;99839.88;6149031;23;20005;-77
2023/11/20 03:44:49;;;;;;;12.07;6.55;;;;;;;1.53;76.16;99843.03;6149666;23;20006;-80
2023/11/20 03:47:14;;;;;;;13.20;6.90;;;;;;;1.57;74.89;99831.19;6148532;23;20039;-79
2023/11/20 03:49:40;;;;;;;12.93;7.30;;;;;;;1.62;75.69;99825.47;6148984;23;20022;-80
2023/11/20 03:52:05;;;;;;;12.65;7.07;;;;;;;1.68;75.63;99801.13;6149293;23;20347;-79
2023/11/20 03:54:31;;;;;;;14.20;6.80;;;;;;;1.99;74.66;99814.38;6149205;23;20424;-79
2023/11/20 03:56:57;;;;;;;13.02;7.53;;;;;;;1.95;74.15;99805.97;6148349;23;20063;-78
2023/11/20 03:59:22;;;;;;;13.43;7.03;;;;;;;2.00;74.08;99803.69;6148918;23;20371;-79
2023/11/20 04:01:49;;;;;;;12.70;7.25;;;;;;;2.01;74.87;99805.31;6149529;23;20072;-80
2023/11/20 04:04:15;;;;;;;10.38;6.88;;;;;;;1.69;76.05;99823.78;6149157;23;20465;-78
2023/11/20 04:06:40;;;;;;;13.52;7.32;;;;;;;2.00;75.71;99810.72;6149578;23;20092;-79
2023/11/20 04:09:06;;;;;;;14.25;7.70;;;;;;;1.98;75.82;99810.91;6148952;23;20006;-80
2023/11/20 04:11:32;;;;;;;14.20;7.03;;;;;;;1.98;75.05;99797.78;6149571;23;20009;-78
2023/11/20 04:13:58;;;;;;;12.50;6.65;;;;;;;2.03;74.91;99793.81;6149069;23;20013;-79
2023/11/20 04:16:23;;;;;;;13.50;6.90;;;;;;;2.18;75.27;99797.34;6149035;23;20005;-79
2023/11/20 04:18:49;;;;;;;11.93;7.50;;;;;;;2.16;73.86;99787.00;6148754;23;20720;-79
2023/11/20 04:21:14;;;;;;;12.77;6.95;;;;;;;2.04;73.82;99762.06;6149056;23;20006;-78
2023/11/20 04:23:40;;;;;;;12.18;7.03;;;;;;;1.83;76.37;99804.69;6149087;23;20005;-80
2023/11/20 04:26:05;;;;;;;12.57;6.60;;;;;;;2.01;74.33;99812.38;6148187;23;20068;-79
2023/11/20 04:28:31;;;;;;;13.32;6.00;;;;;;;1.91;74.21;99817.81;6148874;23;20002;-79
2023/11/20 04:30:58;;;;;;;13.77;6.03;;;;;;;1.85;74.19;99817.69;6148387;23;20006;-78
2023/11/20 04:33:25;;;;;;;9.70;5.38;;;;;;;0.80;76.29;99763.25;6149349;23;20010;-78
2023/11/20 04:35:51;;;;;;;9.50;5.20;;;;;;;1.37;76.02;99794.78;6148896;23;20092;-79
2023/11/20 04:38:16;;;;;;;10.93;6.40;;;;;;;1.35;75.80;99785.44;6149200;23;20044;-79
2023/11/20 04:40:42;;;;;;;9.93;5.65;;;;;;;1.53;76.47;99803.59;6148783;23;20009;-79
2023/11/20 04:43:07;;;;;;;8.13;4.45;;;;;;;1.84;76.29;99814.25;6149077;23;20008;-79
2023/11/20 04:45:33;;;;;;;7.53;3.83;;;;;;;1.89;76.42;99793.50;6148573;23;20353;-78
2023/11/20 04:47:58;;;;;;;8.13;3.95;;;;;;;2.20;76.26;99784.84;6148295;23;20483;-79
2023/11/20 04:50:24;;;;;;;7.22;3.05;;;;;;;2.69;74.75;99789.84;6148356;23;20092;-79
2023/11/20 04:52:50;;;;;;;5.45;2.50;;;;;;;3.14;73.69;99779.47;6149140;23;20009;-79
2023/11/20 04:55:16;;;;;;;5.22;2.78;;;;;;;3.49;73.56;99801.72;6148337;23;20015;-79
2023/11/20 04:57:41;;;;;;;5.80;2.72;;;;;;;3.74;72.75;99802.34;6148339;23;20447;-79
2023/11/20 05:00:08;;;;;;;5.15;2.40;;;;;;;3.97;71.69;99814.63;6148671;23;20010;-79
2023/11/20 05:02:34;;;;;;;5.68;2.10;;;;;;;4.51;70.15;99801.06;6148495;23;20010;-78
2023/11/20 05:04:59;;;;;;;5.32;2.10;;;;;;;5.09;67.98;99814.28;6148844;23;20084;-79
2023/11/20 05:07:25;;;;;;;4.75;2.30;;;;;;;5.23;67.05;99797.53;6148746;23;20424;-79
2023/11/20 05:09:50;;;;;;;6.47;2.35;;;;;;;5.50;66.03;99795.09;6148393;23;20016;-79
2023/11/20 05:12:16;;;;;;;4.00;1.90;;;;;;;5.69;66.07;99800.72;6148825;23;20009;-79
2023/11/20 05:14:42;;;;;;;5.65;1.90;;;;;;;5.66;65.56;99803.75;6148785;23;20010;-78
2023/11/20 05:17:07;;;;;;;4.18;1.73;;;;;;;5.57;66.15;99790.66;6148216;23;20101;-79
2023/11/20 05:19:33;;;;;;;3.28;2.00;;;;;;;5.89;64.51;99793.72;6122078;23;20016;-79
2023/11/20 05:21:58;;;;;;;3.58;2.05;;;;;;;5.81;65.29;99801.81;6148451;23;20037;-79
2023/11/20 05:24:24;;;;;;;4.00;1.77;;;;;;;5.67;65.93;99805.41;6148268;23;20005;-78
2023/11/20 05:26:50;;;;;;;4.05;2.00;;;;;;;5.41;67.31;99796.25;6148320;23;20450;-80
2023/11/20 05:29:16;;;;;;;4.32;2.35;;;;;;;5.27;66.87;99794.50;6148455;23;20037;-79
2023/11/20 05:31:43;;;;;;;4.95;2.28;;;;;;;5.34;67.09;99785.63;6148422;23;20009;-79
2023/11/20 05:34:09;;;;;;;4.28;1.88;;;;;;;5.38;66.76;99796.63;6148589;23;20016;-78
2023/11/20 05:36:34;;;;;;;3.10;1.90;;;;;;;5.66;66.29;99803.75;6148218;23;20037;-78
2023/11/20 05:39:00;;;;;;;4.18;2.58;;;;;;;5.66;66.57;99812.53;6148635;23;20006;-80
2023/11/20 05:41:25;;;;;;;4.38;2.00;;;;;;;5.60;67.03;99787.66;6148624;23;20009;-78
2023/11/20 05:43:51;;;;;;;4.15;1.98;;;;;;;5.83;65.84;99815.69;6150634;23;20002;-79
2023/11/20 05:46:16;;;;;;;5.20;2.45;;;;;;;5.89;65.90;99819.38;6150464;23;20010;-79
2023/11/20 05:48:41;;;;;;;8.02;3.10;;;;;;;5.57;66.59;99793.31;6149974;23;20009;-79
2023/11/20 05:51:07;;;;;;;7.93;3.63;;;;;;;5.50;67.19;99805.69;6150726;23;20021;-80
2023/11/20 05:53:32;;;;;;;9.60;4.20;;;;;;;5.44;65.25;99811.75;6150287;23;20002;-79
2023/11/20 05:55:58;;;;;;;5.18;3.00;;;;;;;5.15;64.18;99802.97;6150123;23;20005;-81
2023/11/20 05:58:25;;;;;;;7.53;4.10;;;;;;;5.22;65.56;99790.59;6150286;23;20064;-79
2023/11/20 06:00:50;;;;;;;8.10;4.47;;;;;;;5.69;65.98;99829.84;6149711;23;20009;-80
2023/11/20 06:03:16;;;;;;;6.15;2.67;;;;;;;6.02;63.98;99806.25;6149491;23;20321;-78
2023/11/20 06:05:41;;;;;;;6.25;2.25;;;;;;;6.23;63.99;99811.47;6149747;23;20454;-77
2023/11/20 06:08:07;;;;;;;6.07;2.50;;;;;;;6.51;63.46;99828.28;6149904;23;20012;-78
2023/11/20 06:10:32;;;;;;;5.18;2.45;;;;;;;6.64;62.53;99836.28;6150150;23;20084;-80
2023/11/20 06:12:57;;;;;;;3.80;2.08;;;;;;;6.69;62.07;99812.63;6150160;23;20012;-80
2023/11/20 06:15:23;;;;;;;4.53;2.00;;;;;;;6.83;61.67;99832.84;6150277;23;20017;-79
2023/11/20 06:17:48;;;;;;;4.68;2.25;;;;;;;6.77;61.98;99812.47;6150326;23;20013;-80
2023/11/20 06:20:14;;;;;;;4.90;2.53;;;;;;;7.00;61.46;99821.88;6150104;23;20005;-79
2023/11/20 06:22:41;;;;;;;3.70;1.95;;;;;;;7.01;62.03;99839.44;6150704;23;20112;-79
2023/11/20 06:25:07;;;;;;;2.83;2.00;;;;;;;7.13;61.84;99843.13;6124327;23;20005;-79
2023/11/20 06:27:34;;;;;;;4.60;2.10;;;;;;;7.22;61.37;99857.81;6123937;23;20067;-80
2023/11/20 06:29:59;;;;;;;101.95;62.38;;;;;;;7.17;61.36;99852.31;6150296;23;20009;-80
2023/11/20 06:32:25;;;;;;;347.92;177.93;;;;;;;7.40;60.63;99859.88;6150069;23;20012;-81
2023/11/20 06:34:51;;;;;;;89.35;43.88;;;;;;;7.62;60.49;99872.94;6150096;23;20009;-80
2023/11/20 06:37:16;;;;;;;21.48;13.88;;;;;;;7.80;59.95;99864.38;6149602;23;20395;-80
2023/11/20 06:39:44;;;;;;;21.25;17.30;;;;;;;7.95;60.11;99866.81;6149781;23;20463;-78
2023/11/20 06:42:10;;;;;;;;;;;;;;;8.23;59.22;99874.50;6150332;23;20056;-79
2023/11/20 06:44:38;;;;;;;6.30;3.08;;;;;;;8.38;59.31;99845.88;6150270;23;19975;-79
2023/11/20 06:47:07;;;;;;;6.00;2.75;;;;;;;8.74;57.67;99823.25;6150091;23;20013;-80
2023/11/20 06:49:36;;;;;;;6.43;2.85;;;;;;;9.11;57.36;99846.56;6150142;23;20010;-81
2023/11/20 06:52:02;;;;;;;5.10;2.35;;;;;;;9.42;55.61;99835.09;6123934;23;20428;-80
2023/11/20 06:54:28;;;;;;;14.23;8.68;;;;;;;9.54;55.72;99849.34;6150017;23;20084;-80
2023/11/20 06:56:54;;;;;;;8.02;3.78;;;;;;;9.57;55.52;99827.59;6150662;23;20056;-80
2023/11/20 06:59:19;;;;;;;5.07;2.28;;;;;;;9.64;55.28;99817.72;6123889;23;20020;-79
2023/11/20 07:01:46;;;;;;;6.20;2.50;;;;;;;9.92;55.52;99834.25;6149811;23;20072;-80
2023/11/20 07:04:14;;;;;;;3.85;1.88;;;;;;;10.13;54.67;99838.34;6150029;23;20009;-80
2023/11/20 07:06:42;;;;;;;5.18;2.15;;;;;;;10.05;54.44;99818.13;6124109;23;20009;-80
2023/11/20 07:09:14;;;;;;;3.90;1.60;;;;;;;10.73;53.69;99856.34;6123539;23;20478;-79
2023/11/20 07:11:43;;;;;;;4.55;1.50;;;;;;;10.85;52.40;99825.19;6123493;23;20406;-79
2023/11/20 07:14:10;;;;;;;3.88;1.52;;;;;;;11.05;52.70;99841.75;6150091;23;20006;-80
2023/11/20 07:16:36;;;;;;;3.53;1.85;;;;;;;11.39;51.89;99855.38;6149716;23;20016;-80
2023/11/20 07:19:01;;;;;;;3.50;1.77;;;;;;;11.67;51.55;99840.56;6149810;23;20634;-79
2023/11/20 07:21:27;;;;;;;4.45;1.75;;;;;;;11.86;49.85;99812.69;6149032;23;20671;-79
2023/11/20 07:23:52;;;;;;;4.68;1.55;;;;;;;12.12;49.92;99857.91;6122832;23;20059;-80
2023/11/20 07:26:18;;;;;;;2.08;1.10;;;;;;;12.55;48.92;99856.66;6149187;23;20064;-80
2023/11/20 07:28:44;;;;;;;1.75;0.98;;;;;;;12.84;46.50;99838.78;6149487;23;20023;-80
2023/11/20 07:31:10;;;;;;;3.25;1.02;;;;;;;12.90;46.61;99839.69;6148922;23;20459;-78
2023/11/20 07:33:35;;;;;;;1.85;1.00;;;;;;;13.20;46.64;99842.09;6122855;23;20016;-78
2023/11/20 07:36:01;;;;;;;2.03;1.00;;;;;;;13.38;46.06;99841.06;6122866;23;20002;-78
2023/11/20 07:38:26;;;;;;;2.10;0.90;;;;;;;13.65;44.57;99860.81;6148774;23;20001;-80
2023/11/20 07:40:52;;;;;;;1.77;0.98;;;;;;;13.77;45.04;99858.06;6148742;23;20009;-82
2023/11/20 07:43:17;;;;;;;3.05;1.10;;;;;;;13.85;43.73;99832.69;6122865;23;20428;-80
2023/11/20 07:45:42;;;;;;;1.92;1.00;;;;;;;14.00;43.85;99857.03;6149381;23;20036;-80
2023/11/20 07:48:09;;;;;;;2.08;1.00;;;;;;;14.34;43.79;99848.91;6123327;23;20044;-82
2023/11/20 07:50:35;;;;;;;3.13;0.90;;;;;;;14.42;42.55;99859.19;6118561;23;20025;-83
2023/11/20 07:53:01;;;;;;;2.17;0.90;;;;;;;14.44;42.74;99824.91;6120411;23;20005;-81
2023/11/20 07:55:26;;;;;;;2.80;1.40;;;;;;;14.65;41.94;99841.28;6120171;23;20002;-78
2023/11/20 07:57:52;;;;;;;1.58;1.08;;;;;;;14.64;42.39;99828.91;6121904;23;20025;-79
2023/11/20 08:00:18;;;;;;;1.85;0.90;;;;;;;14.72;42.30;99831.13;6120881;23;20002;-79
2023/11/20 08:02:44;;;;;;;1.20;0.85;;;;;;;14.77;41.77;99828.53;6118084;23;20454;-83
2023/11/20 08:05:10;;;;;;;3.22;1.00;;;;;;;14.68;42.25;99805.88;6118076;23;20089;-80
2023/11/20 08:07:35;;;;;;;3.25;1.50;;;;;;;14.98;42.00;99802.69;6119829;23;20017;-80
2023/11/20 08:10:03;;;;;;;2.28;0.98;;;;;;;15.17;41.75;99842.59;6118163;23;20432;-80
2023/11/20 08:12:29;;;;;;;2.88;0.90;;;;;;;15.13;41.28;99836.13;6125695;23;20538;-82
2023/11/20 08:14:54;;;;;;;3.20;0.95;;;;;;;15.33;40.74;99840.88;6120396;23;20035;-80
2023/11/20 08:17:19;;;;;;;3.20;1.02;;;;;;;15.36;40.70;99829.59;6119566;23;20395;-82
2023/11/20 08:19:45;;;;;;;1.88;1.05;;;;;;;15.62;40.39;99828.72;6118452;23;20005;-81
2023/11/20 08:22:11;;;;;;;3.30;0.93;;;;;;;15.31;40.49;99789.28;6119031;23;20001;-79
2023/11/20 08:24:39;;;;;;;1.85;1.20;;;;;;;15.56;40.48;99821.69;6119400;23;20611;-80
2023/11/20 08:27:04;;;;;;;1.92;1.10;;;;;;;15.58;40.43;99795.38;6117866;23;20060;-80
2023/11/20 08:29:30;;;;;;;2.45;0.93;;;;;;;15.80;40.11;99794.47;6119344;23;20006;-79
2023/11/20 08:31:55;;;;;;;3.17;0.95;;;;;;;15.76;40.37;99807.63;6119176;23;20016;-82
2023/11/20 08:34:21;;;;;;;1.83;0.85;;;;;;;16.03;40.24;99791.34;6120060;23;20076;-81
2023/11/20 08:36:46;;;;;;;2.22;1.10;;;;;;;16.50;40.19;99800.44;6117885;23;20111;-80
2023/11/20 08:39:14;;;;;;;3.33;1.10;;;;;;;16.60;40.12;99778.91;6118823;23;20081;-79
2023/11/20 08:41:39;;;;;;;1.93;0.90;;;;;;;16.80;39.09;99785.44;6119068;23;20002;-79
2023/11/20 08:44:08;;;;;;;2.55;1.00;;;;;;;16.59;38.92;99777.31;6117910;23;20020;-81
2023/11/20 08:46:34;;;;;;;2.70;0.90;;;;;;;16.65;38.88;99775.44;6119478;23;20010;-79
2023/11/20 08:49:00;;;;;;;2.17;0.63;;;;;;;16.60;38.80;99767.34;6118166;23;20348;-79
2023/11/20 08:51:27;;;;;;;3.20;1.13;;;;;;;16.70;38.77;99763.88;6117538;23;20100;-79
2023/11/20 08:53:52;;;;;;;1.13;0.90;;;;;;;17.06;38.74;99792.50;6119141;23;20013;-79
2023/11/20 08:56:18;;;;;;;2.25;0.93;;;;;;;17.10;38.44;99760.44;6119583;23;20002;-81
2023/11/20 08:58:43;;;;;;;1.55;0.90;;;;;;;17.35;38.36;99758.81;6118671;23;20018;-79
2023/11/20 09:01:09;;;;;;;1.67;0.80;;;;;;;17.49;37.47;99746.41;6119678;23;20012;-80
2023/11/20 09:03:34;;;;;;;2.55;0.80;;;;;;;17.19;37.23;99752.63;6119745;23;20017;-78
2023/11/20 09:05:59;;;;;;;1.48;0.80;;;;;;;17.16;37.93;99758.53;6119393;23;20016;-79
2023/11/20 09:08:26;;;;;;;2.03;0.77;;;;;;;17.15;38.11;99749.66;6119712;23;20006;-79
2023/11/20 09:10:51;;;;;;;1.92;0.82;;;;;;;17.29;38.15;99749.13;6118057;23;20009;-79
2023/11/20 09:13:17;;;;;;;2.78;1.00;;;;;;;17.20;37.82;99735.38;6117829;23;20348;-81
2023/11/20 09:15:42;;;;;;;1.58;0.63;;;;;;;17.39;37.56;99730.25;6118084;23;20032;-79
2023/11/20 09:18:08;;;;;;;1.73;0.90;;;;;;;17.22;37.77;99731.34;6119579;23;20356;-80
2023/11/20 09:20:34;;;;;;;3.08;1.10;;;;;;;17.49;37.77;99722.13;6121239;23;20037;-79
2023/11/20 09:23:00;;;;;;;3.38;0.85;;;;;;;17.45;37.03;99718.38;6121261;23;20010;-78
2023/11/20 09:25:25;;;;;;;1.42;0.80;;;;;;;17.63;37.55;99731.28;6121143;23;20017;-79
2023/11/20 09:27:51;;;;;;;4.20;1.70;;;;;;;17.44;37.43;99689.78;6120789;23;20005;-81
2023/11/20 09:30:16;;;;;;;6.10;2.70;;;;;;;17.64;37.14;99695.13;6121034;23;20444;-79
2023/11/20 09:32:45;;;;;;;6.60;3.00;;;;;;;17.97;36.88;99710.94;6121027;23;20114;-81
2023/11/20 09:35:10;;;;;;;7.40;2.50;;;;;;;18.15;36.14;99693.34;6119281;23;20013;-79
2023/11/20 09:37:37;;;;;;;3.88;1.70;;;;;;;18.11;36.41;99697.66;6121085;23;20002;-81
2023/11/20 09:40:04;;;;;;;4.75;2.00;;;;;;;18.09;35.98;99687.16;6120941;23;20077;-79
2023/11/20 09:42:30;;;;;;;5.05;2.33;;;;;;;18.28;36.33;99703.50;6119871;23;20005;-81
2023/11/20 09:44:59;;;;;;;7.07;1.90;;;;;;;18.59;35.91;99716.81;6121350;23;20032;-81
2023/11/20 09:47:28;;;;;;;3.88;1.05;;;;;;;18.30;35.70;99698.63;6119731;23;20033;-81
2023/11/20 09:49:56;;;;;;;2.80;1.00;;;;;;;17.96;36.24;99696.66;6131271;23;20076;-81
2023/11/20 09:52:24;;;;;;;2.25;0.90;;;;;;;18.40;36.39;99690.47;6150883;23;20012;-82
2023/11/20 09:54:55;;;;;;;3.30;1.27;;;;;;;18.46;36.05;99677.75;6150240;23;20010;-82
2023/11/20 09:57:25;;;;;;;4.95;1.08;;;;;;;18.49;36.10;99696.09;6150098;23;20001;-79
2023/11/20 09:59:50;;;;;;;7.20;1.30;;;;;;;18.51;35.89;99685.00;6149889;23;20430;-78
2023/11/20 10:02:17;;;;;;;2.17;1.00;;;;;;;18.35;36.41;99693.22;6123861;23;20428;-79
2023/11/20 10:04:45;;;;;;;4.47;1.70;;;;;;;18.47;36.29;99679.38;6124069;23;20379;-81
2023/11/20 10:07:14;;;;;;;4.97;2.05;;;;;;;18.72;36.06;99664.06;6150630;23;20013;-82
2023/11/20 10:09:45;;;;;;;4.30;1.63;;;;;;;18.76;35.64;99684.81;6124522;23;20036;-81
2023/11/20 10:12:13;;;;;;;4.10;1.17;;;;;;;18.59;36.21;99654.69;6150802;23;20623;-80
2023/11/20 10:14:39;;;;;;;5.07;1.27;;;;;;;18.82;36.19;99669.41;6124405;23;20419;-81
2023/11/20 10:17:05;;;;;;;3.35;1.27;;;;;;;18.85;35.37;99669.63;6150660;23;20009;-80
2023/11/20 10:19:30;;;;;;;5.00;1.60;;;;;;;19.13;35.07;99661.81;6150422;23;20006;-81
2023/11/20 10:21:58;;;;;;;7.60;2.75;;;;;;;19.70;34.25;99680.16;6124768;23;20017;-83
2023/11/20 10:24:25;;;;;;;10.80;4.53;;;;;;;19.76;34.52;99682.53;6149993;23;20009;-83
2023/11/20 10:26:51;;;;;;;8.07;2.72;;;;;;;19.54;34.36;99672.22;6124830;23;20005;-83
2023/11/20 10:29:17;;;;;;;8.93;3.30;;;;;;;19.07;34.91;99665.66;6150151;23;20006;-82
2023/11/20 10:31:43;;;;;;;13.00;2.65;;;;;;;19.16;34.92;99631.50;6123939;23;20009;-82
2023/11/20 10:34:10;;;;;;;4.13;1.77;;;;;;;19.91;34.12;99676.13;6124304;23;20013;-83
2023/11/20 10:36:39;;;;;;;7.78;1.80;;;;;;;20.07;34.04;99672.13;6150147;23;20463;-81
2023/11/20 10:39:07;;;;;;;7.20;0.88;;;;;;;20.11;33.44;99658.00;6123952;23;20017;-82
2023/11/20 10:41:39;;;;;;;4.28;0.90;;;;;;;20.19;33.18;99684.44;6150497;23;20013;-82
2023/11/20 10:44:05;;;;;;;5.57;0.88;;;;;;;20.20;33.27;99678.69;6150125;23;20324;-84
2023/11/20 10:46:30;;;;;;;4.32;0.95;;;;;;;20.11;33.17;99656.09;6124699;23;20100;-81
2023/11/20 10:49:05;;;;;;;2.75;1.15;;;;;;;20.34;33.09;99667.94;6123970;23;20083;-81
2023/11/20 10:51:32;;;;;;;7.28;1.30;;;;;;;20.10;33.19;99681.53;6150578;23;20013;-82
2023/11/20 10:54:04;;;;;;;5.85;1.60;;;;;;;20.18;32.73;99677.38;6150081;23;20024;-82
2023/11/20 10:56:33;;;;;;;10.93;2.30;;;;;;;20.14;33.16;99654.69;6123622;23;20084;-82
2023/11/20 10:59:05;;;;;;;6.03;2.65;;;;;;;19.71;33.22;99649.31;6123708;23;20013;-81
2023/11/20 11:01:32;;;;;;;6.63;3.13;;;;;;;20.05;33.06;99674.31;6124156;23;20010;-81
2023/11/20 11:03:58;;;;;;;8.57;2.77;;;;;;;20.44;33.08;99656.97;6149756;23;20058;-81
2023/11/20 11:06:27;;;;;;;6.90;2.70;;;;;;;20.44;32.69;99665.09;6149842;23;20237;-81
2023/11/20 11:08:57;;;;;;;3.78;1.30;;;;;;;19.96;32.65;99673.38;6150382;23;20009;-82
2023/11/20 11:11:22;;;;;;;3.90;0.90;;;;;;;20.18;32.62;99643.00;6150136;23;20009;-83
2023/11/20 11:13:51;;;;;;;2.78;1.10;;;;;;;20.26;31.98;99642.31;6123908;23;20088;-82
2023/11/20 11:16:20;;;;;;;4.15;1.25;;;;;;;20.71;32.11;99666.31;6123677;23;20017;-82
2023/11/20 11:18:53;;;;;;;6.30;1.70;;;;;;;20.52;31.60;99650.06;6149740;23;20376;-81
2023/11/20 11:21:24;;;;;;;9.05;3.65;;;;;;;20.68;31.90;99664.22;6124341;23;20014;-80
2023/11/20 11:23:53;;;;;;;10.05;2.97;;;;;;;20.46;31.83;99657.47;6124202;23;20355;-82
2023/11/20 11:26:59;;;;;;;6.80;2.60;;;;;;;20.82;32.13;99651.50;6124087;23;20020;-83
2023/11/20 11:29:30;;;;;;;5.00;2.00;;;;;;;19.68;32.80;99640.66;6150066;23;20056;-81
2023/11/20 11:32:00;;;;;;;5.63;1.60;;;;;;;20.13;32.48;99664.72;6149544;23;20002;-81